地図

経路データ

SID SEASON NUMBER BASIN SUBBASIN NAME ISO_TIME NATURE LAT LON WMO_WIND WMO_PRES WMO_AGENCY TRACK_TYPE DIST2LAND LANDFALL IFLAG USA_AGENCY USA_ATCF_ID USA_LAT USA_LON USA_RECORD USA_STATUS USA_WIND USA_PRES USA_SSHS USA_R34_NE USA_R34_SE USA_R34_SW USA_R34_NW USA_R50_NE USA_R50_SE USA_R50_SW USA_R50_NW USA_R64_NE USA_R64_SE USA_R64_SW USA_R64_NW USA_POCI USA_ROCI USA_RMW USA_EYE TOKYO_LAT TOKYO_LON TOKYO_GRADE TOKYO_WIND TOKYO_PRES TOKYO_R50_DIR TOKYO_R50_LONG TOKYO_R50_SHORT TOKYO_R30_DIR TOKYO_R30_LONG TOKYO_R30_SHORT TOKYO_LAND CMA_LAT CMA_LON CMA_CAT CMA_WIND CMA_PRES HKO_LAT HKO_LON HKO_CAT HKO_WIND HKO_PRES NEWDELHI_LAT NEWDELHI_LON NEWDELHI_GRADE NEWDELHI_WIND NEWDELHI_PRES NEWDELHI_CI NEWDELHI_DP NEWDELHI_POCI REUNION_LAT REUNION_LON REUNION_TYPE REUNION_WIND REUNION_PRES REUNION_TNUM REUNION_CI REUNION_RMW REUNION_R34_NE REUNION_R34_SE REUNION_R34_SW REUNION_R34_NW REUNION_R50_NE REUNION_R50_SE REUNION_R50_SW REUNION_R50_NW REUNION_R64_NE REUNION_R64_SE REUNION_R64_SW REUNION_R64_NW BOM_LAT BOM_LON BOM_TYPE BOM_WIND BOM_PRES BOM_TNUM BOM_CI BOM_RMW BOM_R34_NE BOM_R34_SE BOM_R34_SW BOM_R34_NW BOM_R50_NE BOM_R50_SE BOM_R50_SW BOM_R50_NW BOM_R64_NE BOM_R64_SE BOM_R64_SW BOM_R64_NW BOM_ROCI BOM_POCI BOM_EYE BOM_POS_METHOD BOM_PRES_METHOD NADI_LAT NADI_LON NADI_CAT NADI_WIND NADI_PRES WELLINGTON_LAT WELLINGTON_LON WELLINGTON_WIND WELLINGTON_PRES DS824_LAT DS824_LON DS824_STAGE DS824_WIND DS824_PRES TD9636_LAT TD9636_LON TD9636_STAGE TD9636_WIND TD9636_PRES TD9635_LAT TD9635_LON TD9635_WIND TD9635_PRES TD9635_ROCI NEUMANN_LAT NEUMANN_LON NEUMANN_CLASS NEUMANN_WIND NEUMANN_PRES MLC_LAT MLC_LON MLC_CLASS MLC_WIND MLC_PRES USA_GUST BOM_GUST BOM_GUST_PER REUNION_GUST REUNION_GUST_PER USA_SEAHGT USA_SEARAD_NE USA_SEARAD_SE USA_SEARAD_SW USA_SEARAD_NW STORM_SPEED STORM_DIR
1950301N09138 1950 101 WP MM RUBY 1950-10-27 12:00:00 TS 9.30000 138.000 main 1151 1151 __O___________ -1 9.30000 138.000 1 29 1004 17 322
1950301N09138 1950 101 WP MM RUBY 1950-10-27 15:00:00 TS 9.95777 137.470 main 1217 1187 __P___________ -1 9.95777 137.470 1 29 1003 17 325
1950301N09138 1950 101 WP MM RUBY 1950-10-27 18:00:00 TS 10.7000 137.000 main 1190 1167 __O___________ -1 10.7000 137.000 1 29 1002 18 333
1950301N09138 1950 101 WP MM RUBY 1950-10-27 21:00:00 TS 11.5649 136.627 main 1169 1153 __P___________ -1 11.5649 136.627 1 33 1001 18 338
1950301N09138 1950 101 WP MM RUBY 1950-10-28 00:00:00 TS 12.4000 136.300 main 1154 1117 __O___________ -1 12.4000 136.300 2 38 1000 16 336
1950301N09138 1950 101 WP MM RUBY 1950-10-28 03:00:00 TS 13.0374 135.950 main 1121 1121 __P___________ -1 13.0374 135.950 2 38 997 22 35
1950301N09138 1950 101 WP MM RUBY 1950-10-28 06:00:00 TS 14.2000 137.571 main 1329 1328 O_O______O_O__ jtwc_wp WP141950 15.0000 140.200 40 0 13.6000 135.600 2 38 995 15.0000 140.200 TC 40 15.0000 140.200 40 994 180 23 42
1950301N09138 1950 101 WP MM RUBY 1950-10-28 09:00:00 TS 14.7538 137.516 main 1330 1284 P_P______P_P__ WP141950 15.1180 139.037 50 0 14.2075 135.235 2 43 992 15.1180 139.037 TC 50 15.1180 139.037 50 987 180 11 329
1950301N09138 1950 101 WP MM RUBY 1950-10-28 12:00:00 TS 15.1571 136.971 main 1287 1202 O_O______OOO__ jtwc_wp WP141950 15.3000 137.800 60 0 14.8000 134.900 3 48 990 15.3000 137.800 TC 60 15.3000 137.800 2 60 15.3000 137.800 60 980 180 16 299
1950301N09138 1950 101 WP MM RUBY 1950-10-28 15:00:00 TS 15.5444 136.065 main 1202 1125 P_P______PPP__ WP141950 15.5981 136.475 70 1 15.3424 134.635 3 53 985 15.5981 136.475 TC 70 15.6260 136.467 2 70 15.5981 136.475 70 973 180 20 295
1950301N09138 1950 101 WP MM RUBY 1950-10-28 18:00:00 TS 15.9789 135.111 main 1119 1068 O_O______OOO__ jtwc_wp WP141950 16.0000 135.300 80 1 15.9000 134.400 3 58 980 16.0000 135.300 TC 80 16.0000 135.300 3 80 16.0000 135.300 80 966 180 19 300
1950301N09138 1950 101 WP MM RUBY 1950-10-28 21:00:00 TS 16.4846 134.366 main 1072 1050 P_P______PPP__ WP141950 16.4693 134.420 90 2 16.5500 134.128 3 77 965 16.4693 134.420 TC 90 16.4650 134.440 3 90 16.4693 134.420 90 959 330 16 312
1950301N09138 1950 101 WP MM RUBY 1950-10-29 00:00:00 TS 17.0400 133.900 main 1051 1047 O_O______OOO__ jtwc_wp WP141950 17.0000 133.900 100 3 17.2000 133.900 5 97 950 17.0000 133.900 TC 100 17.0000 133.900 4 100 17.0000 133.900 100 953 480 13 330
1950301N09138 1950 101 WP MM RUBY 1950-10-29 03:00:00 TS 17.5783 133.705 main 1068 1068 P_P______PPP__ WP141950 17.5271 133.729 100 3 17.7574 133.740 5 97 947 17.5271 133.729 TC 100 17.5527 133.599 4 100 17.5271 133.729 100 946 480 11 352
1950301N09138 1950 101 WP MM RUBY 1950-10-29 06:00:00 TS 18.1488 133.734 main 1099 1099 O_O______OPO__ jtwc_wp WP141950 18.1000 133.800 100 3 18.3000 133.700 5 97 945 18.1000 133.800 TC 100 18.1439 133.570 4 100 18.1000 133.800 100 940 480 12 5
1950301N09138 1950 101 WP MM RUBY 1950-10-29 09:00:00 TS 18.7616 133.809 main 1142 1142 P_P______PPP__ WP141950 18.7199 133.840 100 3 18.8850 133.790 5 101 945 18.7199 133.840 TC 100 18.7633 133.732 4 100 18.7199 133.840 100 936 450 13 11
1950301N09138 1950 101 WP MM RUBY 1950-10-29 12:00:00 TS 19.4200 134.000 main 1193 1193 O_O______OOO__ jtwc_wp WP141950 19.4000 134.000 100 3 19.5000 134.000 6 106 945 19.4000 134.000 TC 100 19.4000 134.000 4 100 19.4000 134.000 100 933 420 14 18
1950301N09138 1950 101 WP MM RUBY 1950-10-29 15:00:00 TS 20.1149 134.277 main 1260 1203 P_P______PPP__ WP141950 20.1651 134.319 100 3 20.1049 134.256 6 106 942 20.1651 134.319 TC 100 19.9740 134.173 4 100 20.1651 134.319 100 929 420 15 23
1950301N09138 1950 101 WP MM RUBY 1950-10-29 18:00:00 TS 20.8143 134.628 main 1203 1150 O_O______OPO__ jtwc_wp WP141950 20.9000 134.700 100 3 20.8000 134.600 6 106 940 20.9000 134.700 TC 100 20.5713 134.439 4 100 20.9000 134.700 100 925 420 15 25
1950301N09138 1950 101 WP MM RUBY 1950-10-29 21:00:00 TS 21.4579 134.953 main 1144 1093 P_P______PPP__ WP141950 21.4722 134.978 100 3 21.6400 135.020 6 111 940 21.4722 134.978 TC 100 21.2329 134.810 4 100 21.4722 134.978 100 921 450 15 27
1950301N09138 1950 101 WP MM RUBY 1950-10-30 00:00:00 TS 22.1200 135.340 main 1093 1050 O_O______OOO__ jtwc_wp WP141950 22.0000 135.300 100 3 22.6000 135.500 6 116 940 22.0000 135.300 TC 100 22.0000 135.300 4 100 22.0000 135.300 100 918 480 15 31
1950301N09138 1950 101 WP MM RUBY 1950-10-30 03:00:00 TS 22.7681 135.803 main 1045 999 P_P______PPP__ WP141950 22.4643 135.699 100 3 23.6047 135.971 6 116 940 22.4643 135.699 TC 100 22.8429 135.948 4 100 22.4643 135.699 100 920 480 18 34
1950301N09138 1950 101 WP MM RUBY 1950-10-30 06:00:00 TS 23.6199 136.422 main 999 930 O_O______OPO__ jtwc_wp WP141950 23.2000 136.300 100 3 24.7000 136.500 6 116 940 23.2000 136.300 TC 100 23.7993 136.711 4 100 23.2000 136.300 100 923 480 25 33
1950301N09138 1950 101 WP MM RUBY 1950-10-30 09:00:00 TS 24.8693 137.301 main 927 836 P_P______PPP__ WP141950 24.5245 137.288 100 3 25.8924 137.120 6 116 940 24.5245 137.288 TC 100 24.8806 137.519 4 100 24.5245 137.288 100 928 510 31 31
1950301N09138 1950 101 WP MM RUBY 1950-10-30 12:00:00 TS 26.3000 138.200 main 825 707 O_O______OOO__ jtwc_wp WP141950 26.1000 138.300 100 3 27.1000 137.800 6 116 940 26.1000 138.300 TC 100 26.1000 138.300 4 100 26.1000 138.300 100 933 540 31 26
1950301N09138 1950 101 WP MM RUBY 1950-10-30 15:00:00 TS 27.6482 138.813 main 707 592 P_P______PPP__ WP141950 27.5335 138.900 100 3 28.1768 138.466 6 116 940 27.5335 138.900 TC 100 27.4640 138.899 4 100 27.5335 138.900 100 937 570 30 21
1950301N09138 1950 101 WP MM RUBY 1950-10-30 18:00:00 TS 29.0520 139.374 main 588 470 O_O______OPO__ jtwc_wp WP141950 29.0000 139.400 100 3 29.3000 139.200 6 116 940 29.0000 139.400 TC 100 28.9599 139.471 4 100 29.0000 139.400 100 942 600 31 20
1950301N09138 1950 101 WP MM RUBY 1950-10-30 21:00:00 TS 30.5467 140.051 main 473 333 P_P______PPP__ WP141950 30.5493 140.042 100 3 30.5596 140.044 6 111 940 30.5493 140.042 TC 100 30.5260 140.082 4 100 30.5493 140.042 100 947 600 33 23
1950301N09138 1950 101 WP MM RUBY 1950-10-31 00:00:00 TS 32.0800 140.840 main 323 223 O_O______OOO__ jtwc_wp WP141950 32.1000 140.800 100 3 32.0000 141.000 6 106 940 32.1000 140.800 TC 100 32.1000 140.800 4 100 32.1000 140.800 100 952 600 34 25
1950301N09138 1950 101 WP MM RUBY 1950-10-31 03:00:00 TS 33.5958 141.759 main 219 177 P_P______PPP__ WP141950 33.5566 141.679 85 2 33.6776 142.077 6 106 940 33.5566 141.679 TC 85 33.6315 141.681 4 93 33.5566 141.679 85 956 600 34 28
1950301N09138 1950 101 WP MM RUBY 1950-10-31 06:00:00 TS 35.1030 142.807 main 184 184 O_O______OPO__ jtwc_wp WP141950 35.0000 142.700 70 1 35.4000 143.200 6 106 940 35.0000 142.700 TC 70 35.1190 142.713 4 87 35.0000 142.700 70 961 600 35 30
1950301N09138 1950 101 WP MM RUBY 1950-10-31 09:00:00 TS 36.6154 143.920 main 261 261 P_P______PPP__ WP141950 36.5057 143.815 72 1 36.9661 144.261 6 96 945 36.5057 143.815 TC 72 36.5722 143.864 4 81 36.5057 143.815 72 965 600 36 32
1950301N09138 1950 101 WP MM RUBY 1950-10-31 12:00:00 TS 38.1143 145.157 main 309 304 O_O______OOO__ jtwc_wp WP141950 38.0000 145.100 75 1 38.4000 145.300 5 87 950 38.0000 145.100 TC 75 38.0000 145.100 4 75 38.0000 145.100 75 970 600 36 35
1950301N09138 1950 101 WP MM RUBY 1950-10-31 15:00:00 TS 39.5370 146.489 main 376 322 P_P______P_P__ WP141950 39.4274 146.579 67 1 39.7014 146.355 5 87 950 39.4274 146.579 TC 67 4 39.4274 146.579 67 975 630 34 36
1950301N09138 1950 101 WP MM RUBY 1950-10-31 18:00:00 MX 40.8571 147.743 main 313 269 O_O______O_O__ jtwc_wp WP141950 40.8000 148.200 60 0 40.9000 147.400 9 87 950 40.8000 148.200 TC 60 4 40.8000 148.200 60 980 660 30 30
1950301N09138 1950 101 WP MM RUBY 1950-10-31 21:00:00 ET 42.0866 148.460 main 271 237 __P___________ WP141950 -1 42.0866 148.460 9 950 TC 4 27 29
1950301N09138 1950 101 WP MM RUBY 1950-11-01 00:00:00 ET 43.2000 149.500 main 233 173 __O___________ -1 43.2000 149.500 9 950 26 34
1950301N09138 1950 101 WP MM RUBY 1950-11-01 03:00:00 ET 44.1967 150.443 main 164 128 __P___________ -1 44.1967 150.443 9 955 25 36
1950301N09138 1950 101 WP MM RUBY 1950-11-01 06:00:00 ET 45.2000 151.500 main 128 126 __O___________ -1 45.2000 151.500 9 960 28 38
1950301N09138 1950 101 WP MM RUBY 1950-11-01 09:00:00 ET 46.3867 152.885 main 194 194 __P___________ -1 46.3867 152.885 9 960 31 42
1950301N09138 1950 101 WP MM RUBY 1950-11-01 12:00:00 ET 47.5000 154.500 main 285 186 __O___________ -1 47.5000 154.500 9 960 30 49
1950301N09138 1950 101 WP MM RUBY 1950-11-01 15:00:00 ET 48.3933 156.264 main 189 181 __P___________ -1 48.3933 156.264 9 960 28 57
1950301N09138 1950 101 WP MM RUBY 1950-11-01 18:00:00 ET 49.0000 158.000 main 201 201 __O___________ -1 49.0000 158.000 9 960 23 67
1950301N09138 1950 101 WP MM RUBY 1950-11-01 21:00:00 ET 49.2950 159.506 main 266 266 __P___________ -1 49.2950 159.506 9 960 19 78
1950301N09138 1950 101 WP MM RUBY 1950-11-02 00:00:00 ET 49.4000 160.800 main 318 318 __O___________ -1 49.4000 160.800 9 960 16 83
1950301N09138 1950 101 WP MM RUBY 1950-11-02 03:00:00 ET 49.4979 161.963 main 370 370 __P___________ -1 49.4979 161.963 9 960 14 82
1950301N09138 1950 101 WP MM RUBY 1950-11-02 06:00:00 ET 49.6000 163.000 main 420 420 __O___________ -1 49.6000 163.000 9 960 14 79
1950301N09138 1950 101 WP MM RUBY 1950-11-02 09:00:00 ET 49.7551 164.076 main 458 458 __P___________ -1 49.7551 164.076 9 962 13 73
1950301N09138 1950 101 WP MM RUBY 1950-11-02 12:00:00 ET 50.0000 165.000 main 481 478 __O___________ -1 50.0000 165.000 9 965 12 60
1950301N09138 1950 101 WP MM RUBY 1950-11-02 15:00:00 ET 50.3692 165.719 main 486 484 __P___________ -1 50.3692 165.719 9 965 11 44
1950301N09138 1950 101 WP MM RUBY 1950-11-02 18:00:00 ET 50.8000 166.200 main 487 476 __O___________ -1 50.8000 166.200 9 965 10 29
1950301N09138 1950 101 WP MM RUBY 1950-11-02 21:00:00 ET 51.2370 166.476 main 482 455 __P___________ -1 51.2370 166.476 9 967 8 17
1950301N09138 1950 101 WP MM RUBY 1950-11-03 00:00:00 ET 51.6000 166.600 main 455 442 __O___________ -1 51.6000 166.600 9 970 5 15
1950301N09138 1950 101 WP MM RUBY 1950-11-03 03:00:00 ET 51.7649 166.694 main 442 438 __P___________ -1 51.7649 166.694 9 970 3 22
1950301N09138 1950 101 WP MM RUBY 1950-11-03 06:00:00 ET 51.9000 166.800 main 438 427 __O___________ -1 51.9000 166.800 9 970 4 27
1950301N09138 1950 101 WP MM RUBY 1950-11-03 09:00:00 ET 52.1550 167.013 main 425 419 __P___________ -1 52.1550 167.013 9 975 7 27
1950301N09138 1950 101 WP MM RUBY 1950-11-03 12:00:00 ET 52.5000 167.300 main 419 405 __O___________ -1 52.5000 167.300 9 980 9 24
1950301N09138 1950 101 WP MM RUBY 1950-11-03 15:00:00 ET 53.0251 167.640 main 405 400 __P___________ -1 53.0251 167.640 9 980 10 25
1950301N09138 1950 101 WP MM RUBY 1950-11-03 18:00:00 ET 53.4000 168.000 main 409 409 __O___________ -1 53.4000 168.000 9 980 5 53
1950301N09138 1950 101 WP MM RUBY 1950-11-03 21:00:00 ET 53.3045 168.271 main 431 431 __P___________ -1 53.3045 168.271 9 985 5 138
1950301N09138 1950 101 WP MM RUBY 1950-11-04 00:00:00 ET 53.0000 168.600 main 463 463 __O___________ -1 53.0000 168.600 9 990 7 136
1950301N09138 1950 101 WP MM RUBY 1950-11-04 03:00:00 ET 52.7730 169.135 main 503 503 __P___________ -1 52.7730 169.135 9 995 8 127
1950301N09138 1950 101 WP MM RUBY 1950-11-04 06:00:00 ET 52.5000 169.700 main 554 554 __O___________ -1 52.5000 169.700 9 1000 8 132
1950301N09138 1950 101 WP MM RUBY 1950-11-04 09:00:00 ET 52.2468 170.096 main 594 594 __P___________ -1 52.2468 170.096 9 1002 9 145
1950301N09138 1950 101 WP MM RUBY 1950-11-04 12:00:00 ET 51.8000 170.500 main 641 641 __O___________ -1 51.8000 170.500 9 1004 14 155
1950301N09138 1950 101 WP MM RUBY 1950-11-04 15:00:00 ET 51.0060 171.020 main 721 721 __P___________ -1 51.0060 171.020 9 1009 19 159
1950301N09138 1950 101 WP MM RUBY 1950-11-04 18:00:00 ET 50.0000 171.600 main 825 __O___________ -1 50.0000 171.600 9 1014 21 160

デジタル台風データ・検索

IBTrACS Databaseについて

本データベースは、米国NOAAが公開する1842年以降の世界の熱帯低気圧のベストトラックデータアーカイブInternational Best Track Archive for Climate Stewardship (IBTrACS)を、ウェブで閲覧しやすい形式に変換したものです。

最終更新日:2021-12-03